createdAt,value
2023-07-25T00:00:31.646Z,0.6
2023-07-25T00:02:33.671Z,0.6
2023-07-25T00:04:35.671Z,0.5
2023-07-25T00:16:50.931Z,0.6
2023-07-25T00:18:53.160Z,0.6
2023-07-25T00:20:54.937Z,0.6
2023-07-25T00:23:00.013Z,0.6
2023-07-25T00:25:02.054Z,0.6
2023-07-25T00:27:04.067Z,0.5
2023-07-25T00:29:06.092Z,0.6
2023-07-25T00:31:08.126Z,0.6
2023-07-25T00:33:10.243Z,0.5
2023-07-25T00:37:17.232Z,0.6
2023-07-25T00:39:19.295Z,0.6
2023-07-25T00:47:27.412Z,0.6
2023-07-25T00:49:29.382Z,0.6
2023-07-25T00:53:36.522Z,0.6
2023-07-25T00:55:38.530Z,0.6
2023-07-25T01:04:10.310Z,0.6
2023-07-25T01:06:12.362Z,0.6
2023-07-25T01:08:14.390Z,0.6
2023-07-25T01:26:37.198Z,0.6
2023-07-25T01:28:39.195Z,0.6
2023-07-25T01:34:48.324Z,0.7
2023-07-25T01:38:52.392Z,0.6
2023-07-25T01:42:56.429Z,0.6
2023-07-25T01:51:07.583Z,0.6
2023-07-25T01:52:10.125Z,0.7
2023-07-25T01:56:14.193Z,0.7
2023-07-25T02:00:21.297Z,0.7
2023-07-25T02:02:23.380Z,0.6
2023-07-25T02:04:25.368Z,0.6
2023-07-25T02:06:27.421Z,0.7
2023-07-25T02:16:40.598Z,0.7
2023-07-25T02:22:46.652Z,0.6
2023-07-25T02:24:48.729Z,0.7
2023-07-25T02:26:50.708Z,0.7
2023-07-25T02:35:01.882Z,0.7
2023-07-25T02:39:05.908Z,0.7
2023-07-25T02:41:07.931Z,0.7
2023-07-25T02:43:13.014Z,0.7
2023-07-25T02:48:19.594Z,0.8
2023-07-25T02:52:23.644Z,0.7
2023-07-25T02:54:25.679Z,0.7
2023-07-25T02:58:32.761Z,0.7
2023-07-25T03:02:36.860Z,0.7
2023-07-25T03:06:40.850Z,0.6
2023-07-25T03:08:42.876Z,0.6
2023-07-25T03:10:47.979Z,0.6
2023-07-25T03:14:51.984Z,0.6
2023-07-25T03:16:54.113Z,0.8
2023-07-25T03:18:56.037Z,0.7
2023-07-25T03:20:58.080Z,0.8
2023-07-25T03:25:05.197Z,0.7
2023-07-25T03:29:09.233Z,0.7
2023-07-25T03:31:11.245Z,0.7
2023-07-25T03:35:15.307Z,0.7
2023-07-25T03:37:17.349Z,0.7
2023-07-25T03:39:22.412Z,0.6
2023-07-25T03:41:24.434Z,0.7
2023-07-25T03:43:26.496Z,0.8
2023-07-25T03:44:29.004Z,0.8
2023-07-25T03:48:33.182Z,0.7
2023-07-25T03:50:35.084Z,0.7
2023-07-25T03:52:40.167Z,0.7
2023-07-25T03:54:42.187Z,0.7
2023-07-25T03:56:44.217Z,0.7
2023-07-25T03:58:46.257Z,0.7
2023-07-25T04:00:48.326Z,0.7
2023-07-25T04:03:00.655Z,0.7
2023-07-25T04:04:52.452Z,0.7
2023-07-25T04:06:57.398Z,0.6
2023-07-25T04:08:59.423Z,0.7
2023-07-25T04:11:01.457Z,0.6
2023-07-25T04:17:07.538Z,0.7
2023-07-25T04:19:09.547Z,0.7
2023-07-25T04:21:14.663Z,0.6
2023-07-25T04:25:18.716Z,0.6
2023-07-25T04:27:20.740Z,0.6
2023-07-25T04:31:24.762Z,0.6
2023-07-25T04:33:26.775Z,0.6
2023-07-25T04:35:31.881Z,0.6
2023-07-25T04:37:33.889Z,0.6
2023-07-25T04:39:36.137Z,0.6
2023-07-25T04:41:58.891Z,0.6
2023-07-25T04:44:01.002Z,0.6
2023-07-25T04:54:14.175Z,0.6
2023-07-25T04:56:16.217Z,0.5
2023-07-25T04:58:18.207Z,0.6
2023-07-25T05:00:20.246Z,0.5
2023-07-25T05:02:25.361Z,0.6
2023-07-25T05:04:27.373Z,0.5
2023-07-25T05:06:29.378Z,0.6
2023-07-25T05:08:31.422Z,0.5
2023-07-25T05:10:33.443Z,0.6
2023-07-25T05:12:35.445Z,0.6
2023-07-25T05:14:37.492Z,0.6
2023-07-25T05:16:42.578Z,0.6
2023-07-25T05:18:44.561Z,0.6
2023-07-25T05:20:46.588Z,0.6
2023-07-25T05:22:48.613Z,0.6
2023-07-25T05:24:50.705Z,0.6
2023-07-25T05:26:52.655Z,0.6
2023-07-25T05:28:54.690Z,0.6
2023-07-25T05:30:59.777Z,0.6
2023-07-25T05:33:01.843Z,0.5
2023-07-25T05:35:03.848Z,0.5
2023-07-25T05:36:06.365Z,0.5
2023-07-25T05:38:08.360Z,0.5
2023-07-25T05:40:10.406Z,0.4
2023-07-25T05:42:12.422Z,0.5
2023-07-25T05:46:19.505Z,0.4
2023-07-25T05:48:21.536Z,0.5
2023-07-25T05:50:23.549Z,0.6
2023-07-25T05:52:25.570Z,0.5
2023-07-25T05:54:27.602Z,0.5
2023-07-25T05:56:29.618Z,0.5
2023-07-25T05:58:34.685Z,0.4
2023-07-25T06:00:36.721Z,0.4
2023-07-25T06:02:38.789Z,0.4
2023-07-25T06:06:42.795Z,0.4
2023-07-25T06:08:44.815Z,0.4
2023-07-25T06:10:46.817Z,0.4
2023-07-25T06:14:53.930Z,0.5
2023-07-25T06:16:55.986Z,0.5
2023-07-25T06:18:57.956Z,0.5
2023-07-25T06:23:02.009Z,0.5
2023-07-25T06:25:04.009Z,0.4
2023-07-25T06:29:11.104Z,0.5
2023-07-25T06:32:15.677Z,0.5
2023-07-25T06:34:17.683Z,0.5
2023-07-25T06:38:21.727Z,0.4
2023-07-25T06:42:28.824Z,0.5
2023-07-25T06:44:30.860Z,0.5
2023-07-25T06:46:32.899Z,0.5
2023-07-25T06:48:34.897Z,0.5
2023-07-25T06:50:36.901Z,0.5
2023-07-25T06:52:38.941Z,0.4
2023-07-25T07:02:52.202Z,0.5
2023-07-25T07:19:12.837Z,0.4
2023-07-25T07:28:26.535Z,0.5
2023-07-25T07:34:32.574Z,0.5
2023-07-25T07:36:37.698Z,0.4
2023-07-25T07:46:47.764Z,0.4
2023-07-25T07:48:49.757Z,0.4
2023-07-25T07:50:54.837Z,0.4
2023-07-25T07:54:58.843Z,0.3
2023-07-25T07:57:00.856Z,0.3
2023-07-25T07:59:02.850Z,0.4
2023-07-25T08:01:04.876Z,0.4
2023-07-25T08:03:06.907Z,0.4
2023-07-25T08:05:11.949Z,0.4
2023-07-25T08:09:15.915Z,0.3
2023-07-25T08:11:17.912Z,0.3
2023-07-25T08:17:23.902Z,0.3
2023-07-25T08:34:06.407Z,0.3
2023-07-25T08:38:10.330Z,0.3
2023-07-25T08:46:21.336Z,0.3
2023-07-25T08:48:24.702Z,0.3
2023-07-25T08:50:25.196Z,0.2
2023-07-25T08:52:27.204Z,0.2
2023-07-25T08:54:29.121Z,0.3
2023-07-25T08:58:33.068Z,0.3
2023-07-25T09:02:40.151Z,0.3
2023-07-25T09:04:42.042Z,0.2
2023-07-25T09:06:44.005Z,0.3
2023-07-25T09:10:47.972Z,0.3
2023-07-25T09:22:03.357Z,0.3
2023-07-25T09:24:05.278Z,0.2
2023-07-25T09:28:12.275Z,0.3
2023-07-25T09:30:14.318Z,0.2
2023-07-25T09:34:18.142Z,0.2
2023-07-25T09:36:20.105Z,0.2
2023-07-25T09:42:29.017Z,0.2
2023-07-25T09:44:30.957Z,0.2
2023-07-25T09:48:34.942Z,0.3
2023-07-25T09:50:36.810Z,0.3
2023-07-25T09:52:38.736Z,0.3
2023-07-25T09:54:40.715Z,0.2
2023-07-25T09:59:04.602Z,0.3
2023-07-25T10:00:49.617Z,0.3
2023-07-25T10:04:53.502Z,0.2
2023-07-25T10:06:55.449Z,0.2
2023-07-25T10:11:02.394Z,0.2
2023-07-25T10:16:08.862Z,0.2
2023-07-25T10:18:10.747Z,0.3
2023-07-25T10:20:14.176Z,0.2
2023-07-25T10:22:14.605Z,0.3
2023-07-25T10:24:19.659Z,0.2
2023-07-25T10:26:21.544Z,0.2
2023-07-25T10:28:23.479Z,0.2
2023-07-25T10:30:25.434Z,0.2
2023-07-25T10:32:27.407Z,0.2
2023-07-25T10:36:31.231Z,0.3
2023-07-25T10:38:36.255Z,0.3
2023-07-25T10:44:42.013Z,0.2
2023-07-25T10:46:44.017Z,0.1
2023-07-25T10:48:45.995Z,0.2
2023-07-25T10:50:47.794Z,0.2
2023-07-25T10:52:52.801Z,0.1
2023-07-25T10:54:54.720Z,0.2
2023-07-25T10:56:56.637Z,0.2
2023-07-25T10:58:58.549Z,0.2
2023-07-25T11:01:00.496Z,0.2
2023-07-25T11:03:02.461Z,0.2
2023-07-25T11:05:04.328Z,0.2
2023-07-25T11:07:09.330Z,0.2
2023-07-25T11:09:11.270Z,0.2
2023-07-25T11:11:13.165Z,0.1
2023-07-25T11:20:26.425Z,0.2
2023-07-25T11:24:30.306Z,0.2
2023-07-25T11:26:32.249Z,0.2
2023-07-25T11:28:34.090Z,0.2
2023-07-25T11:30:36.082Z,0.1
2023-07-25T11:34:42.945Z,0.2
2023-07-25T11:36:44.856Z,0.2
2023-07-25T11:38:46.744Z,0.1
2023-07-25T11:44:52.470Z,0.2
2023-07-25T11:46:54.408Z,0.2
2023-07-25T11:48:59.396Z,0.2
2023-07-25T11:51:01.292Z,0.2
2023-07-25T11:53:03.191Z,0.1
2023-07-25T11:55:05.088Z,0.1
2023-07-25T11:57:06.992Z,0.2
2023-07-25T11:59:08.907Z,0.2
2023-07-25T12:01:10.814Z,0.2
2023-07-25T12:03:15.771Z,0.2
2023-07-25T12:05:17.669Z,0.1
2023-07-25T12:07:22.262Z,0.2
2023-07-25T12:09:41.262Z,0.2
2023-07-25T12:13:45.065Z,0.1
2023-07-25T12:15:50.036Z,0.2
2023-07-25T12:17:51.975Z,0.2
2023-07-25T12:23:58.787Z,0.2
2023-07-25T12:25:59.521Z,0.1
2023-07-25T12:28:01.450Z,0.2
2023-07-25T12:30:06.439Z,0.1
2023-07-25T12:32:08.354Z,0.2
2023-07-25T12:42:17.858Z,0.2
2023-07-25T12:44:22.853Z,0.2
2023-07-25T12:46:24.786Z,0.2
2023-07-25T12:48:26.681Z,0.2
2023-07-25T12:50:28.572Z,0.1
2023-07-25T12:52:30.486Z,0.2
2023-07-25T12:54:32.373Z,0.1
2023-07-25T12:56:34.590Z,0.2
2023-07-25T12:58:39.330Z,0.1
2023-07-25T13:00:41.190Z,0.2
2023-07-25T13:02:44.733Z,0.2
2023-07-25T13:03:47.206Z,0.2
2023-07-25T13:05:48.961Z,0.1
2023-07-25T13:07:50.847Z,0.1
2023-07-25T13:09:52.756Z,0.2
2023-07-25T13:11:57.759Z,0.1
2023-07-25T13:13:59.639Z,0.2
2023-07-25T13:16:01.560Z,0.2
2023-07-25T13:18:03.442Z,0.1
2023-07-25T13:20:05.317Z,0.2
2023-07-25T13:22:07.211Z,0.1
2023-07-25T13:24:09.088Z,0.2
2023-07-25T13:26:14.107Z,0.2
2023-07-25T13:28:15.986Z,0.2
2023-07-25T13:30:17.874Z,0.1
2023-07-25T13:34:21.628Z,0.1
2023-07-25T13:36:23.522Z,0.1
2023-07-25T13:38:25.402Z,0.1
2023-07-25T13:42:32.259Z,0.1
2023-07-25T13:46:36.062Z,0.1
2023-07-25T13:50:51.790Z,0.2
2023-07-25T13:54:46.640Z,0.1
2023-07-25T13:57:24.885Z,0.1
2023-07-25T13:58:50.388Z,0.2
2023-07-25T13:59:52.867Z,0.2
2023-07-25T14:03:56.663Z,0.1
2023-07-25T14:08:03.449Z,0.1
2023-07-25T14:10:05.389Z,0.2
2023-07-25T14:12:07.173Z,0.2
2023-07-25T14:14:09.058Z,0.1
2023-07-25T14:16:10.938Z,0.1
2023-07-25T14:18:12.808Z,0.2
2023-07-25T14:20:14.698Z,0.1
2023-07-25T14:22:19.658Z,0.1
2023-07-25T14:24:21.548Z,0.1
2023-07-25T14:26:23.421Z,0.1
2023-07-25T14:28:25.281Z,0.2
2023-07-25T14:30:27.141Z,0.1
2023-07-25T14:32:29.089Z,0.1
2023-07-25T14:36:35.916Z,0.1
2023-07-25T14:40:39.650Z,0.1
2023-07-25T14:42:41.517Z,0.1
2023-07-25T14:44:43.371Z,0.2
2023-07-25T14:48:47.166Z,0.1
2023-07-25T14:54:55.868Z,0.1
2023-07-25T14:55:58.314Z,0.1
2023-07-25T15:00:02.118Z,0.2
2023-07-25T15:02:04.071Z,0.2
2023-07-25T15:04:08.977Z,0.1
2023-07-25T15:16:20.313Z,0.1
2023-07-25T15:18:25.290Z,0.1
2023-07-25T15:20:27.174Z,0.1
2023-07-25T15:24:30.994Z,0.2
2023-07-25T15:26:33.315Z,0.2
2023-07-25T15:28:34.699Z,0.2
2023-07-25T15:30:36.603Z,0.1
2023-07-25T15:32:41.605Z,0.1
2023-07-25T15:34:43.422Z,0.2
2023-07-25T15:36:46.794Z,0.1
2023-07-25T15:38:47.168Z,0.1
2023-07-25T15:40:48.997Z,0.1
2023-07-25T15:44:52.701Z,0.1
2023-07-25T15:46:57.666Z,0.1
2023-07-25T15:48:59.488Z,0.1
2023-07-25T15:51:01.336Z,0.1
2023-07-25T15:55:25.470Z,0.1
2023-07-25T15:57:27.322Z,0.1
2023-07-25T15:59:32.274Z,0.1
2023-07-25T16:01:34.331Z,0.1
2023-07-25T16:03:36.045Z,0.1
2023-07-25T16:05:37.782Z,0.1
2023-07-25T16:07:39.617Z,0.1
2023-07-25T16:09:43.621Z,0.1
2023-07-25T16:11:43.301Z,0.1
2023-07-25T16:13:48.237Z,0.1
2023-07-25T16:19:53.815Z,0.1
2023-07-25T16:21:55.698Z,0.2
2023-07-25T16:23:57.515Z,0.1
2023-07-25T16:28:04.366Z,0.1
2023-07-25T16:32:08.111Z,0.1
2023-07-25T16:36:11.770Z,0.1
2023-07-25T16:40:15.442Z,0.1
2023-07-25T16:42:20.368Z,0.2
2023-07-25T16:46:24.112Z,0.1
2023-07-25T16:47:26.515Z,0.1
2023-07-25T16:49:30.100Z,0.1
2023-07-25T16:51:30.298Z,0.1
2023-07-25T16:53:31.892Z,0.1
2023-07-25T16:55:36.828Z,0.1
2023-07-25T16:57:38.620Z,0.1
2023-07-25T16:59:40.427Z,0.1
2023-07-25T17:01:42.283Z,0.1
2023-07-25T17:03:44.065Z,0.1
2023-07-25T17:07:47.656Z,0.1
2023-07-25T17:09:52.565Z,0.1
2023-07-25T17:13:56.193Z,0.1
2023-07-25T17:15:58.063Z,0.1
2023-07-25T17:17:59.883Z,0.1
2023-07-25T17:20:01.675Z,0.1
2023-07-25T17:22:03.540Z,0.1
2023-07-25T17:24:08.470Z,0.1
2023-07-25T17:26:10.314Z,0.1
2023-07-25T17:28:12.145Z,0.1
2023-07-25T17:30:13.963Z,0.1
2023-07-25T17:32:15.816Z,0.1
2023-07-25T17:43:30.636Z,0.1
2023-07-25T17:45:32.532Z,0.1
2023-07-25T17:47:34.382Z,0.1
2023-07-25T17:49:36.183Z,0.1
2023-07-25T17:51:41.145Z,0.1
2023-07-25T17:53:43.003Z,0.1
2023-07-25T17:55:44.887Z,0.2
2023-07-25T17:57:46.783Z,0.1
2023-07-25T17:59:48.673Z,0.1
2023-07-25T18:01:50.644Z,0.2
2023-07-25T18:03:52.451Z,0.2
2023-07-25T18:05:57.432Z,0.1
2023-07-25T18:07:59.324Z,0.2
2023-07-25T18:10:01.204Z,0.2
2023-07-25T18:12:03.165Z,0.2
2023-07-25T18:14:05.002Z,0.2
2023-07-25T18:16:06.952Z,0.1
2023-07-25T18:18:08.759Z,0.2
2023-07-25T18:20:13.760Z,0.1
2023-07-25T18:22:15.658Z,0.2
2023-07-25T18:24:17.569Z,0.2
2023-07-25T18:28:21.342Z,0.2
2023-07-25T18:30:23.231Z,0.2
2023-07-25T18:32:25.148Z,0.2
2023-07-25T18:38:33.977Z,0.1
2023-07-25T18:39:36.466Z,0.3
2023-07-25T18:41:38.380Z,0.2
2023-07-25T18:43:40.310Z,0.2
2023-07-25T18:45:42.258Z,0.3
2023-07-25T18:53:54.672Z,0.2
2023-07-25T18:55:56.559Z,0.3
2023-07-25T18:57:58.548Z,0.3
2023-07-25T19:00:00.504Z,0.3
2023-07-25T19:04:07.496Z,0.3
2023-07-25T19:08:11.428Z,0.3
2023-07-25T19:10:13.434Z,0.3
2023-07-25T19:12:15.377Z,0.3
2023-07-25T19:14:17.368Z,0.4
2023-07-25T19:24:30.422Z,0.3
2023-07-25T19:28:34.388Z,0.3
2023-07-25T19:32:41.479Z,0.4
2023-07-25T19:37:04.162Z,0.3
2023-07-25T19:43:13.237Z,0.3
2023-07-25T19:45:15.230Z,0.4
2023-07-25T19:51:21.249Z,0.3
2023-07-25T19:53:23.241Z,0.4
2023-07-25T19:55:25.241Z,0.4
2023-07-25T19:57:30.327Z,0.4
2023-07-25T20:01:34.321Z,0.4
2023-07-25T20:03:36.484Z,0.4
2023-07-25T20:05:38.347Z,0.4
2023-07-25T20:07:40.352Z,0.4
2023-07-25T20:09:42.383Z,0.4
2023-07-25T20:11:47.431Z,0.4
2023-07-25T20:13:49.444Z,0.3
2023-07-25T20:15:51.445Z,0.4
2023-07-25T20:17:53.598Z,0.4
2023-07-25T20:19:55.472Z,0.4
2023-07-25T20:21:57.510Z,0.4
2023-07-25T20:23:59.531Z,0.4
2023-07-25T20:26:04.578Z,0.4
2023-07-25T20:28:06.575Z,0.3
2023-07-25T20:30:08.575Z,0.4
2023-07-25T20:31:11.133Z,0.4
2023-07-25T20:35:15.160Z,0.4
2023-07-25T20:39:22.239Z,0.5
2023-07-25T20:41:24.258Z,0.5
2023-07-25T20:43:26.253Z,0.4
2023-07-25T20:45:28.315Z,0.4
2023-07-25T20:47:30.305Z,0.4
2023-07-25T20:49:32.311Z,0.4
2023-07-25T20:51:34.324Z,0.5
2023-07-25T20:53:39.396Z,0.4
2023-07-25T20:55:44.278Z,0.4
2023-07-25T20:57:43.443Z,0.4
2023-07-25T20:59:45.442Z,0.4
2023-07-25T21:01:47.498Z,0.4
2023-07-25T21:03:49.480Z,0.4
2023-07-25T21:05:51.485Z,0.4
2023-07-25T21:12:00.560Z,0.4
2023-07-25T21:14:02.583Z,0.4
2023-07-25T21:16:04.659Z,0.4
2023-07-25T21:18:12.969Z,0.4
2023-07-25T21:22:13.705Z,0.4
2023-07-25T21:27:20.243Z,0.5
2023-07-25T21:29:22.288Z,0.4
2023-07-25T21:31:24.277Z,0.4
2023-07-25T21:33:27.372Z,0.4
2023-07-25T21:35:31.338Z,0.4
2023-07-25T21:37:33.346Z,0.3
2023-07-25T21:39:35.347Z,0.4
2023-07-25T21:41:37.422Z,0.4
2023-07-25T21:43:39.357Z,0.3
2023-07-25T21:45:41.461Z,0.4
2023-07-25T21:47:43.456Z,0.4
2023-07-25T21:49:48.470Z,0.4
2023-07-25T21:51:50.475Z,0.4
2023-07-25T21:53:52.518Z,0.5
2023-07-25T21:55:54.517Z,0.4
2023-07-25T21:57:56.528Z,0.4
2023-07-25T21:59:58.541Z,0.3
2023-07-25T22:02:00.538Z,0.4
2023-07-25T22:06:07.631Z,0.4
2023-07-25T22:08:09.625Z,0.5
2023-07-25T22:10:11.646Z,0.5
2023-07-25T22:12:13.659Z,0.4
2023-07-25T22:14:15.663Z,0.4
2023-07-25T22:16:17.809Z,0.4
2023-07-25T22:20:29.716Z,0.5
2023-07-25T22:22:26.811Z,0.4
2023-07-25T22:23:29.342Z,0.4
2023-07-25T22:27:33.350Z,0.4
2023-07-25T22:29:35.365Z,0.4
2023-07-25T22:31:40.460Z,0.4
2023-07-25T22:33:42.446Z,0.4
2023-07-25T22:35:44.457Z,0.4
2023-07-25T22:37:46.475Z,0.5
2023-07-25T22:39:48.478Z,0.4
2023-07-25T22:41:50.489Z,0.4
2023-07-25T22:43:52.500Z,0.5
2023-07-25T22:45:57.611Z,0.4
2023-07-25T22:47:59.638Z,0.4
2023-07-25T23:10:24.799Z,0.5
2023-07-25T23:12:26.784Z,0.5
2023-07-25T23:14:31.873Z,0.5
2023-07-25T23:16:34.185Z,0.5
2023-07-25T23:18:35.909Z,0.5
2023-07-25T23:23:00.886Z,0.4
2023-07-25T23:27:08.006Z,0.5
2023-07-25T23:29:09.992Z,0.5
2023-07-25T23:31:12.086Z,0.5
2023-07-25T23:33:08.197Z,0.4
2023-07-25T23:35:10.119Z,0.4
2023-07-25T23:39:14.166Z,0.4
2023-07-25T23:41:19.232Z,0.5
2023-07-25T23:45:23.316Z,0.5
2023-07-25T23:47:25.341Z,0.5
2023-07-25T23:49:27.326Z,0.5
2023-07-25T23:51:29.374Z,0.4
2023-07-25T23:53:31.338Z,0.5
2023-07-25T23:57:38.446Z,0.4
2023-07-25T23:59:40.457Z,0.5
